createdAt,value
2019-05-21T00:01:18.001Z,5.33
2019-05-21T00:06:13.165Z,5.60
2019-05-21T00:11:08.362Z,5.73
2019-05-21T00:16:03.356Z,5.13
2019-05-21T00:20:58.326Z,7.03
2019-05-21T00:25:53.284Z,6.70
2019-05-21T00:31:24.564Z,4.50
2019-05-21T00:36:58.147Z,4.33
2019-05-21T00:42:04.311Z,4.97
2019-05-21T00:47:00.591Z,5.10
2019-05-21T00:52:07.121Z,5.63
2019-05-21T00:56:52.171Z,6.93
2019-05-21T01:01:47.060Z,6.70
2019-05-21T01:06:42.114Z,7.10
2019-05-21T01:11:36.963Z,7.90
2019-05-21T01:16:31.877Z,8.63
2019-05-21T01:21:26.761Z,8.47
2019-05-21T01:26:21.601Z,8.80
2019-05-21T01:31:16.471Z,8.37
2019-05-21T01:36:11.435Z,9.47
2019-05-21T01:41:06.404Z,9.53
2019-05-21T01:46:03.558Z,12.67
2019-05-21T01:50:58.429Z,12.73
2019-05-21T01:55:53.383Z,9.53
2019-05-21T02:00:48.580Z,9.13
2019-05-21T02:05:43.442Z,8.53
2019-05-21T02:10:38.965Z,10.13
2019-05-21T02:15:39.872Z,8.43
2019-05-21T02:20:34.884Z,9.37
2019-05-21T02:25:29.839Z,8.73
2019-05-21T02:30:24.822Z,8.27
2019-05-21T02:35:20.150Z,8.20
2019-05-21T02:40:20.407Z,7.90
2019-05-21T02:45:21.320Z,8.63
2019-05-21T02:50:16.486Z,8.60
2019-05-21T02:55:11.503Z,11.53
2019-05-21T03:00:47.266Z,9.97
2019-05-21T03:05:42.319Z,8.60
2019-05-21T03:10:37.359Z,9.50
2019-05-21T03:15:32.588Z,7.63
2019-05-21T03:20:27.467Z,7.10
2019-05-21T03:25:22.317Z,7.73
2019-05-21T03:30:17.317Z,6.70
2019-05-21T03:35:12.563Z,6.43
2019-05-21T03:40:08.606Z,6.03
2019-05-21T03:45:07.250Z,5.90
2019-05-21T03:50:00.212Z,5.37
2019-05-21T03:54:56.189Z,4.33
2019-05-21T03:59:51.203Z,3.20
2019-05-21T04:04:46.166Z,3.00
2019-05-21T04:09:47.005Z,2.20
2019-05-21T04:14:46.167Z,1.53
2019-05-21T04:19:41.410Z,1.40
2019-05-21T04:24:36.331Z,1.20
2019-05-21T04:29:32.314Z,1.10
2019-05-21T04:34:27.210Z,1.33
2019-05-21T04:39:22.107Z,1.30
2019-05-21T04:44:16.973Z,0.93
2019-05-21T04:49:11.848Z,1.00
2019-05-21T04:54:06.838Z,1.20
2019-05-21T04:59:03.956Z,1.23
2019-05-21T05:03:58.881Z,1.50
2019-05-21T05:08:53.755Z,1.43
2019-05-21T05:13:50.661Z,2.57
2019-05-21T05:18:45.580Z,1.40
2019-05-21T05:23:43.905Z,1.17
2019-05-21T05:28:44.763Z,1.27
2019-05-21T05:33:45.685Z,4.20
2019-05-21T05:38:40.960Z,1.30
2019-05-21T05:43:38.976Z,2.63
2019-05-21T05:48:36.167Z,1.70
2019-05-21T05:53:31.172Z,1.30
2019-05-21T05:58:26.124Z,1.30
2019-05-21T06:03:21.161Z,2.90
2019-05-21T06:08:20.697Z,2.60
2019-05-21T06:13:15.632Z,1.67
2019-05-21T06:18:10.558Z,1.40
2019-05-21T06:23:05.627Z,1.90
2019-05-21T06:28:00.611Z,1.23
2019-05-21T06:32:55.662Z,0.73
2019-05-21T06:37:51.638Z,1.00
2019-05-21T06:42:50.600Z,0.90
2019-05-21T06:47:45.552Z,1.20
2019-05-21T06:52:40.616Z,1.00
2019-05-21T06:57:37.820Z,1.23
2019-05-21T07:02:33.755Z,1.50
2019-05-21T07:07:28.731Z,1.10
2019-05-21T07:12:24.132Z,3.67
2019-05-21T07:17:22.395Z,1.10
2019-05-21T07:22:17.303Z,0.80
2019-05-21T07:27:12.444Z,0.80
2019-05-21T07:32:09.405Z,2.00
2019-05-21T07:37:07.515Z,0.47
2019-05-21T07:42:02.526Z,0.80
2019-05-21T07:46:59.664Z,1.33
2019-05-21T07:51:54.672Z,0.83
2019-05-21T07:56:49.708Z,1.00
2019-05-21T08:01:45.005Z,0.87
2019-05-21T08:06:39.865Z,0.83
2019-05-21T08:11:34.830Z,1.90
2019-05-21T08:16:29.692Z,1.50
2019-05-21T08:21:26.897Z,1.70
2019-05-21T08:26:23.838Z,2.30
2019-05-21T08:31:19.910Z,2.57
2019-05-21T08:36:15.915Z,2.63
2019-05-21T08:41:10.820Z,3.50
2019-05-21T08:46:05.852Z,3.50
2019-05-21T08:51:00.828Z,3.70
2019-05-21T08:55:56.787Z,4.17
2019-05-21T09:00:51.749Z,4.00
2019-05-21T09:05:46.696Z,4.20
2019-05-21T09:10:45.557Z,5.60
2019-05-21T09:15:40.688Z,4.83
2019-05-21T09:20:36.634Z,7.07
2019-05-21T09:25:31.614Z,6.80
2019-05-21T09:30:26.823Z,7.67
2019-05-21T09:35:21.831Z,7.47
2019-05-21T09:40:18.788Z,7.57
2019-05-21T09:45:14.355Z,8.03
2019-05-21T09:50:10.032Z,7.70
2019-05-21T09:55:05.506Z,8.33
2019-05-21T10:00:25.503Z,8.20
2019-05-21T10:05:20.768Z,8.27
2019-05-21T10:10:16.794Z,8.47
2019-05-21T10:15:12.773Z,8.13
2019-05-21T10:20:07.855Z,7.50
2019-05-21T10:25:02.864Z,7.63
2019-05-21T10:29:58.853Z,7.67
2019-05-21T10:34:54.903Z,11.37
2019-05-21T10:39:49.853Z,8.07
2019-05-21T10:44:47.202Z,7.70
2019-05-21T10:49:44.016Z,8.30
2019-05-21T10:54:41.094Z,8.47
2019-05-21T10:59:36.144Z,8.60
2019-05-21T11:04:35.724Z,8.57
2019-05-21T11:09:40.530Z,10.27
2019-05-21T11:14:35.933Z,9.30
2019-05-21T11:19:34.498Z,10.63
2019-05-21T11:24:29.566Z,10.47
2019-05-21T11:29:29.560Z,12.43
2019-05-21T11:34:24.628Z,10.77
2019-05-21T11:39:19.505Z,10.83
2019-05-21T11:44:14.441Z,12.30
2019-05-21T11:49:10.441Z,12.80
2019-05-21T11:54:05.937Z,12.47
2019-05-21T11:59:00.896Z,14.50
2019-05-21T12:03:55.797Z,12.67
2019-05-21T12:08:56.611Z,14.57
2019-05-21T12:13:47.619Z,12.73
2019-05-21T12:18:43.190Z,13.10
2019-05-21T12:23:38.103Z,13.50
2019-05-21T12:28:38.943Z,12.80
2019-05-21T12:33:36.060Z,13.40
2019-05-21T12:38:31.102Z,12.87
2019-05-21T12:43:26.038Z,12.20
2019-05-21T12:48:25.208Z,14.20
2019-05-21T12:53:20.098Z,14.10
2019-05-21T12:58:16.001Z,13.13
2019-05-21T13:03:10.981Z,11.87
2019-05-21T13:08:06.060Z,11.17
2019-05-21T13:13:07.084Z,10.73
2019-05-21T13:18:02.008Z,9.87
2019-05-21T13:22:57.034Z,11.03
2019-05-21T13:27:57.582Z,11.30
2019-05-21T13:32:52.068Z,8.63
2019-05-21T13:37:47.018Z,8.97
2019-05-21T13:42:42.014Z,7.93
2019-05-21T13:47:38.056Z,8.30
2019-05-21T13:52:33.099Z,7.27
2019-05-21T13:57:28.083Z,7.77
2019-05-21T14:02:24.336Z,7.30
2019-05-21T14:07:25.272Z,6.60
2019-05-21T14:12:22.306Z,6.63
2019-05-21T14:17:17.327Z,8.83
2019-05-21T14:22:12.316Z,6.47
2019-05-21T14:27:07.418Z,7.30
2019-05-21T14:32:02.408Z,6.67
2019-05-21T14:36:58.282Z,7.30
2019-05-21T14:41:53.179Z,7.20
2019-05-21T14:46:48.398Z,7.00
2019-05-21T14:51:43.454Z,6.57
2019-05-21T14:56:38.351Z,6.87
2019-05-21T15:01:39.248Z,6.50
2019-05-21T15:06:34.327Z,6.10
2019-05-21T15:11:29.308Z,6.20
2019-05-21T15:16:25.252Z,5.33
2019-05-21T15:21:28.724Z,5.27
2019-05-21T15:26:23.624Z,5.07
2019-05-21T15:31:18.578Z,4.77
2019-05-21T15:36:14.467Z,4.20
2019-05-21T15:41:12.490Z,4.20
2019-05-21T15:46:06.484Z,4.00
2019-05-21T15:51:01.486Z,6.63
2019-05-21T15:55:59.644Z,4.03
2019-05-21T16:00:54.792Z,3.80
2019-05-21T16:05:51.009Z,4.40
2019-05-21T16:10:45.913Z,4.97
2019-05-21T16:15:40.925Z,4.10
2019-05-21T16:20:35.975Z,3.77
2019-05-21T16:25:31.497Z,3.93
2019-05-21T16:30:26.521Z,4.10
2019-05-21T16:35:21.556Z,4.20
2019-05-21T16:40:22.577Z,3.60
2019-05-21T16:45:18.698Z,3.60
2019-05-21T16:50:14.567Z,4.10
2019-05-21T16:55:09.879Z,6.63
2019-05-21T17:00:05.465Z,4.20
2019-05-21T17:05:00.380Z,5.10
2019-05-21T17:09:55.425Z,5.10
2019-05-21T17:14:50.338Z,5.00
2019-05-21T17:19:45.232Z,5.43
2019-05-21T17:24:40.247Z,5.63
2019-05-21T17:29:35.151Z,5.73
2019-05-21T17:34:30.037Z,6.17
2019-05-21T17:39:28.401Z,6.97
2019-05-21T17:44:24.946Z,6.70
2019-05-21T17:49:19.977Z,8.10
2019-05-21T17:54:15.003Z,8.47
2019-05-21T17:59:09.900Z,8.70
2019-05-21T18:04:06.145Z,8.67
2019-05-21T18:09:01.101Z,9.67
2019-05-21T18:13:56.148Z,9.70
2019-05-21T18:18:51.409Z,10.30
2019-05-21T18:23:46.551Z,10.10
2019-05-21T18:28:41.598Z,10.20
2019-05-21T18:33:36.664Z,10.30
2019-05-21T18:38:33.052Z,9.70
2019-05-21T18:43:28.034Z,13.57
2019-05-21T18:48:22.971Z,10.10
2019-05-21T18:53:20.246Z,10.80
2019-05-21T18:58:21.450Z,11.50
2019-05-21T19:03:25.108Z,12.47
2019-05-21T19:08:13.512Z,12.13
2019-05-21T19:13:08.527Z,13.50
2019-05-21T19:18:03.697Z,15.63
2019-05-21T19:22:58.894Z,12.80
2019-05-21T19:27:54.875Z,11.87
2019-05-21T19:32:49.896Z,12.47
2019-05-21T19:37:44.951Z,11.40
2019-05-21T19:42:53.750Z,15.10
2019-05-21T19:47:36.686Z,14.20
2019-05-21T19:52:31.669Z,14.00
2019-05-21T19:57:27.675Z,13.37
2019-05-21T20:02:22.935Z,17.27
2019-05-21T20:07:21.551Z,17.00
2019-05-21T20:12:17.214Z,16.03
2019-05-21T20:17:15.459Z,14.27
2019-05-21T20:22:16.571Z,13.20
2019-05-21T20:27:11.629Z,12.73
2019-05-21T20:32:08.807Z,15.13
2019-05-21T20:37:05.799Z,12.60
2019-05-21T20:42:00.686Z,12.70
2019-05-21T20:46:56.896Z,12.13
2019-05-21T20:51:51.962Z,11.87
2019-05-21T20:56:47.005Z,16.57
2019-05-21T21:01:44.254Z,17.37
2019-05-21T21:06:41.663Z,11.67
2019-05-21T21:11:38.055Z,13.43
2019-05-21T21:16:33.609Z,14.43
2019-05-21T21:21:28.783Z,15.83
2019-05-21T21:26:24.837Z,15.40
2019-05-21T21:31:20.118Z,16.87
2019-05-21T21:36:15.013Z,20.83
2019-05-21T21:41:10.151Z,17.43
2019-05-21T21:46:05.575Z,20.77
2019-05-21T21:51:00.907Z,19.27
2019-05-21T21:56:01.776Z,19.07
2019-05-21T22:01:31.326Z,19.70
2019-05-21T22:06:26.869Z,19.47
2019-05-21T22:11:21.899Z,18.80
2019-05-21T22:16:16.965Z,21.07
2019-05-21T22:21:12.308Z,20.43
2019-05-21T22:26:07.277Z,20.93
2019-05-21T22:31:02.238Z,20.77
2019-05-21T22:35:57.514Z,19.90
2019-05-21T22:40:52.510Z,22.43
2019-05-21T22:45:47.430Z,20.83
2019-05-21T22:50:48.448Z,20.23
2019-05-21T22:55:43.532Z,23.40
2019-05-21T23:00:38.883Z,20.37
2019-05-21T23:05:34.113Z,21.03
2019-05-21T23:10:30.155Z,22.47
2019-05-21T23:15:25.747Z,20.13
2019-05-21T23:20:22.922Z,21.13
2019-05-21T23:25:18.197Z,23.10
2019-05-21T23:30:16.801Z,21.37
2019-05-21T23:35:13.864Z,20.87
2019-05-21T23:40:09.983Z,24.07
2019-05-21T23:45:05.793Z,21.93
2019-05-21T23:50:00.993Z,23.10
2019-05-21T23:54:55.928Z,20.90
2019-05-21T23:59:51.201Z,19.00
